ADDS - METARS form results

Aviation Digital Data Service (ADDS)

Output produced by METARs form (1823 UTC 09 July 2020)
found at http://aviationweather.gov/metar/data/
 
METAR text: KC09 091820Z AUTO 16008KT 10SM SCT039 BKN047 31/23 A2986 RMK AO2
Conditions at: KC09 (MORRIS-WASHBURN , IL, US) observed 1820 UTC 09 July 2020
Temperature: 31.0°C (88°F)
Dewpoint: 23.0°C (73°F) [RH = 63%]
Pressure (altimeter): 29.86 inches Hg (1011.3 mb)
Winds: from the SSE (160 degrees) at 9 MPH (8 knots; 4.1 m/s)
Visibility: 10 or more miles (16+ km)
Ceiling: 4700 feet AGL
Clouds: scattered clouds at 3900 feet AGL
broken clouds at 4700 feet AGL
Weather: automated observation with no human augmentation;
there may or may not be significant weather present at this time

METAR text: KC09 091800Z AUTO 16007KT 10SM SCT039 SCT047 31/23 A2986 RMK AO2
Conditions at: KC09 (MORRIS-WASHBURN , IL, US) observed 1800 UTC 09 July 2020
Temperature: 31.0°C (88°F)
Dewpoint: 23.0°C (73°F) [RH = 63%]
Pressure (altimeter): 29.86 inches Hg (1011.3 mb)
Winds: from the SSE (160 degrees) at 8 MPH (7 knots; 3.6 m/s)
Visibility: 10 or more miles (16+ km)
Ceiling: at least 12,000 feet AGL
Clouds: scattered clouds at 3900 feet AGL
scattered clouds at 4700 feet AGL
Weather: automated observation with no human augmentation;
there may or may not be significant weather present at this time

METAR text: KC09 091740Z AUTO 15007KT 10SM CLR 31/23 A2987 RMK AO2
Conditions at: KC09 (MORRIS-WASHBURN , IL, US) observed 1740 UTC 09 July 2020
Temperature: 31.0°C (88°F)
Dewpoint: 23.0°C (73°F) [RH = 63%]
Pressure (altimeter): 29.87 inches Hg (1011.6 mb)
Winds: from the SSE (150 degrees) at 8 MPH (7 knots; 3.6 m/s)
Visibility: 10 or more miles (16+ km)
Ceiling: at least 12,000 feet AGL
Clouds: sky clear below 12,000 feet AGL
Weather: automated observation with no human augmentation;
there may or may not be significant weather present at this time